< Typhoon 197403 1974 Season Typhoon 197405 >
Typhoon 197404 (CARLA)
General InformationTrack Information on Google Maps || NewsDisaster Info.ResourceGoogle EarthGE AnimationAtom FeedGeoJSON
Detalied Best Track (Time Zone = UTC)
Year Month Day Hour Lat. Long. Pressure (hPa) Wind (kt) Class Image Chart
1974 5 1 00 7.9 153.9 1008 0 2 -- Chart
1974 5 1 06 9.1 152.4 1008 0 2 -- Chart
1974 5 1 12 10.2 151.3 1004 0 2 -- Chart
1974 5 1 18 11.1 150.6 1004 0 2 -- Chart
1974 5 2 00 12.0 150.0 1004 0 2 -- Chart
1974 5 2 06 12.6 148.9 998 0 9 -- Chart
1974 5 2 12 13.2 147.7 996 0 9 -- Chart
1974 5 2 18 13.5 147.4 992 0 9 -- Chart
1974 5 3 00 14.3 146.6 990 0 9 -- Chart
1974 5 3 06 14.8 145.7 992 0 9 -- Chart
1974 5 3 12 15.4 145.1 992 0 9 -- Chart
1974 5 3 18 15.7 144.6 985 0 9 -- Chart
1974 5 4 00 16.1 144.3 980 0 9 -- Chart
1974 5 4 06 16.6 144.0 975 0 9 -- Chart
1974 5 4 12 17.2 143.8 970 0 9 -- Chart
1974 5 4 18 17.8 143.6 965 0 9 -- Chart
1974 5 5 00 18.7 143.6 965 0 9 -- Chart
1974 5 5 06 19.8 143.8 965 0 9 -- Chart
1974 5 5 12 20.9 144.4 965 0 9 -- Chart
1974 5 5 18 22.2 145.1 970 0 9 -- Chart
1974 5 6 00 23.8 145.5 980 0 9 -- Chart
1974 5 6 06 25.5 146.1 985 0 9 -- Chart
1974 5 6 12 26.7 148.1 985 0 9 -- Chart
1974 5 6 18 28.0 150.3 985 0 9 -- Chart
1974 5 7 00 29.2 152.5 985 0 9 -- Chart
1974 5 7 06 30.5 154.8 990 0 9 -- Chart
1974 5 7 12 32.0 159.0 1004 0 6 -- Chart
1974 5 7 18 33.0 163.0 1004 0 6 -- Chart
1974 5 8 00 34.0 168.0 1008 0 6 -- Chart
1974 5 8 06 36.0 174.0 1008 0 6 -- Chart
1974 5 8 12 37.0 179.0 1012 0 6 -- Chart
Japan Meteorological Agency Best Track Data | Correction Date : 1989-06-01
< Typhoon 197403 1974 Season Typhoon 197405 >

Help